ブリッジタウン の空港の天気 - METARとTAF

グラントレー・アダムス国際空港 ( TBPB / BGI ) - バルバドス ブリッジタウン
飛行場実況気象(Metar)
観測時間09/22 13:00 AST (09/22 17:00 UTC)
風向・風速東 5m/s
視程10km以上
天気現象
少しの雲 雲底高度 610m
気温32℃
湿度67%
気圧1012hPa
METARTBPB 221700Z 10010KT 9999 FEW020 32/25 Q1012 NOSIG
過去の天気等 Google飛行場航空写真 Wunderground天気予報

過去48時間のMETAR

飛行場予報(TAF)
発表時間: 9/22 13:00 AST (9/22 17:00 UTC)
予報対象時間: 22日14時 AST ~ 23日14時 AST
風向・風速東 5m/s
視程10km以上
全天の4割程度の雲 雲底高度 670m
TAF TBPB 221700Z 2218/2318 09010KT 9999 SCT022